Time;durP1;ratioP1;P1;durP2;ratioP2;P2;SDS_P1;SDS_P2;PMS_P1;PMS_P2;Temp;Humidity;BMP_temperature;BMP_pressure;BME280_temperature;BME280_humidity;BME280_pressure;Samples;Min_cycle;Max_cycle;Signal;HPM_P1;HPM_P2
2022/08/26 00:01:35;;;;;;;4.18;3.28;;;30.40;99.90;;;;;;5031084;22;20050;-52
2022/08/26 00:04:01;;;;;;;4.97;3.83;;;30.40;99.90;;;;;;5012689;28;20517;-52
2022/08/26 00:06:27;;;;;;;4.50;3.70;;;30.50;99.90;;;;;;4994826;28;20490;-53
2022/08/26 00:08:53;;;;;;;4.80;3.53;;;30.40;99.90;;;;;;5012337;28;20029;-52
2022/08/26 00:11:21;;;;;;;3.45;3.05;;;30.40;99.90;;;;;;5012608;28;20030;-54
2022/08/26 00:13:46;;;;;;;4.97;3.67;;;30.40;99.90;;;;;;5012544;28;20026;-52
2022/08/26 00:16:12;;;;;;;4.32;3.50;;;30.40;99.90;;;;;;5012275;28;20025;-52
2022/08/26 00:18:38;;;;;;;5.90;3.83;;;30.40;99.90;;;;;;5012379;28;20394;-52
2022/08/26 00:21:06;;;;;;;5.28;3.55;;;30.40;99.90;;;;;;5012162;28;20022;-51
2022/08/26 00:23:33;;;;;;;5.45;3.92;;;30.40;99.90;;;;;;5012167;28;20029;-50
2022/08/26 00:25:59;;;;;;;4.40;3.47;;;30.40;99.90;;;;;;5012258;28;20300;-51
2022/08/26 00:28:25;;;;;;;6.47;4.17;;;30.40;99.90;;;;;;5012092;28;20080;-52
2022/08/26 00:30:51;;;;;;;5.07;3.63;;;30.40;99.90;;;;;;5012110;28;20030;-52
2022/08/26 00:33:17;;;;;;;5.82;4.03;;;30.30;99.90;;;;;;5012043;28;20124;-50
2022/08/26 00:35:43;;;;;;;6.38;3.83;;;30.40;99.90;;;;;;5012059;28;20018;-51
2022/08/26 00:38:09;;;;;;;4.53;4.00;;;30.30;99.90;;;;;;5011769;28;20401;-51
2022/08/26 00:40:44;;;;;;;7.78;3.85;;;30.30;99.90;;;;;;5011832;28;20030;-52
2022/08/26 00:43:11;;;;;;;4.75;3.78;;;30.40;99.90;;;;;;4994175;28;20492;-54
2022/08/26 00:45:51;;;;;;;4.53;3.40;;;30.40;99.90;;;;;;5011657;28;20394;-51
2022/08/26 00:48:20;;;;;;;6.57;3.78;;;30.30;99.90;;;;;;4993576;28;20030;-52
2022/08/26 00:51:07;;;;;;;4.43;3.30;;;30.40;99.90;;;;;;5011513;28;20029;-52
2022/08/26 00:53:40;;;;;;;4.90;3.85;;;30.30;99.90;;;;;;5011548;28;20030;-52
2022/08/26 00:56:12;;;;;;;5.50;4.00;;;30.30;99.90;;;;;;5011504;28;20037;-52
2022/08/26 00:58:41;;;;;;;5.38;4.50;;;30.30;99.90;;;;;;5011597;28;20033;-53
2022/08/26 01:01:09;;;;;;;4.28;3.60;;;30.30;99.90;;;;;;5037790;23;20064;-50
2022/08/26 01:03:36;;;;;;;5.72;3.75;;;30.30;99.90;;;;;;5031124;28;20026;-49
2022/08/26 01:06:02;;;;;;;6.35;4.40;;;30.30;99.90;;;;;;5031126;28;20100;-49
2022/08/26 01:08:28;;;;;;;5.82;3.80;;;30.30;99.90;;;;;;5030918;28;20034;-49
2022/08/26 01:10:57;;;;;;;6.00;4.22;;;30.30;99.90;;;;;;5030971;28;20393;-49
2022/08/26 01:13:24;;;;;;;4.70;3.47;;;30.30;99.90;;;;;;5031233;28;20378;-50
2022/08/26 01:15:55;;;;;;;6.60;4.10;;;30.30;99.90;;;;;;5031129;28;20388;-49
2022/08/26 01:18:21;;;;;;;5.03;3.47;;;30.30;99.90;;;;;;5031086;28;20107;-49
2022/08/26 01:20:50;;;;;;;3.90;3.50;;;30.30;99.90;;;;;;5030711;28;20048;-49
2022/08/26 01:23:16;;;;;;;5.30;3.90;;;30.30;99.90;;;;;;5030830;28;20025;-49
2022/08/26 01:25:47;;;;;;;6.70;4.88;;;30.30;99.90;;;;;;5030931;28;20362;-50
2022/08/26 01:28:20;;;;;;;3.95;3.42;;;30.20;99.90;;;;;;5030575;28;20107;-50
2022/08/26 01:30:48;;;;;;;5.18;4.30;;;30.20;99.90;;;;;;5030832;28;20060;-49
2022/08/26 01:33:17;;;;;;;4.10;3.13;;;30.20;99.90;;;;;;5030767;28;20026;-49
2022/08/26 01:35:45;;;;;;;3.83;3.45;;;30.20;99.90;;;;;;5030785;28;20504;-49
2022/08/26 01:38:12;;;;;;;4.28;3.58;;;30.20;99.90;;;;;;5030718;28;20405;-49
2022/08/26 01:40:41;;;;;;;5.90;3.70;;;30.20;99.90;;;;;;5030521;28;20397;-50
2022/08/26 01:43:09;;;;;;;6.20;3.88;;;30.20;99.90;;;;;;5030665;28;20033;-49
2022/08/26 01:45:39;;;;;;;4.00;3.60;;;30.20;99.90;;;;;;5030484;28;20030;-49
2022/08/26 01:48:10;;;;;;;5.10;3.72;;;30.20;99.90;;;;;;5030505;28;20390;-49
2022/08/26 01:50:37;;;;;;;4.88;3.88;;;30.20;99.90;;;;;;5030552;28;20362;-49
2022/08/26 01:53:05;;;;;;;;;;;30.20;99.90;;;;;;5030845;28;20053;-50
2022/08/26 01:55:33;;;;;;;4.03;3.22;;;30.20;99.90;;;;;;5030618;28;19901;-50
2022/08/26 01:58:03;;;;;;;5.22;4.72;;;30.10;99.90;;;;;;5030437;28;20288;-49
2022/08/26 02:00:29;;;;;;;5.90;4.18;;;30.20;99.90;;;;;;5031674;28;20126;-49
2022/08/26 02:05:42;;;;;;;5.80;4.10;;;30.10;99.90;;;;;;5034274;28;20461;-49
2022/08/26 02:08:08;;;;;;;4.50;3.90;;;30.10;99.90;;;;;;5034462;28;20472;-49
2022/08/26 02:10:34;;;;;;;4.25;3.85;;;30.10;99.90;;;;;;5034379;28;20022;-49
2022/08/26 02:13:00;;;;;;;5.32;3.90;;;30.10;99.90;;;;;;5034158;28;20033;-51
2022/08/26 02:15:27;;;;;;;4.68;3.50;;;30.00;99.90;;;;;;5034541;28;20048;-50
2022/08/26 02:17:52;;;;;;;4.05;3.60;;;30.10;99.90;;;;;;5034046;28;20037;-50
2022/08/26 02:20:19;;;;;;;4.30;3.45;;;30.10;99.90;;;;;;5034004;28;20109;-49
2022/08/26 02:22:46;;;;;;;4.20;3.70;;;30.00;99.90;;;;;;5034089;28;20026;-50
2022/08/26 02:25:33;;;;;;;4.35;3.60;;;30.00;99.90;;;;;;5034006;28;20030;-49
2022/08/26 02:27:59;;;;;;;4.40;3.25;;;30.00;99.90;;;;;;5034197;28;20028;-50
2022/08/26 02:30:28;;;;;;;4.90;3.70;;;30.00;99.90;;;;;;5034060;28;20035;-49
2022/08/26 02:32:54;;;;;;;4.00;3.38;;;30.00;99.90;;;;;;5033808;28;20102;-49
2022/08/26 02:35:21;;;;;;;4.95;4.20;;;30.00;99.90;;;;;;5033866;28;20037;-50
2022/08/26 02:37:48;;;;;;;4.80;4.10;;;30.00;99.90;;;;;;5015733;28;20440;-50
2022/08/26 02:40:18;;;;;;;4.35;3.80;;;30.00;99.90;;;;;;5033791;28;20389;-50
2022/08/26 02:42:43;;;;;;;3.72;3.40;;;30.00;99.90;;;;;;5033758;28;20100;-50
2022/08/26 02:45:10;;;;;;;3.70;3.33;;;30.00;99.90;;;;;;5033627;28;20529;-50
2022/08/26 02:47:36;;;;;;;5.13;3.85;;;29.90;99.90;;;;;;5015913;28;20021;-50
2022/08/26 02:50:02;;;;;;;3.47;3.15;;;30.00;99.90;;;;;;5033537;28;20081;-50
2022/08/26 02:52:28;;;;;;;6.40;3.30;;;29.90;99.90;;;;;;5033683;28;20048;-50
2022/08/26 02:54:54;;;;;;;3.47;3.03;;;29.90;99.90;;;;;;5033521;28;20025;-50
2022/08/26 02:57:20;;;;;;;4.35;3.50;;;29.90;99.90;;;;;;5033359;28;20067;-50
2022/08/26 02:59:46;;;;;;;3.50;3.20;;;29.90;99.90;;;;;;5033722;28;20077;-50
2022/08/26 03:02:12;;;;;;;4.50;3.00;;;29.90;99.90;;;;;;5033383;28;20072;-50
2022/08/26 03:04:38;;;;;;;3.00;2.70;;;29.90;99.90;;;;;;5033458;28;20041;-50
2022/08/26 03:07:05;;;;;;;4.30;3.90;;;29.90;99.90;;;;;;5033263;28;20021;-50
2022/08/26 03:09:31;;;;;;;3.63;3.28;;;29.90;99.90;;;;;;5033369;28;20056;-50
2022/08/26 03:11:57;;;;;;;4.45;3.20;;;29.90;99.90;;;;;;5033205;28;20033;-50
2022/08/26 03:14:23;;;;;;;3.72;3.13;;;29.90;99.90;;;;;;5033021;28;20045;-50
2022/08/26 03:16:52;;;;;;;3.17;2.88;;;29.90;99.90;;;;;;5033055;28;20110;-48
2022/08/26 03:19:19;;;;;;;4.03;3.40;;;29.90;99.90;;;;;;5032914;28;20142;-49
2022/08/26 03:21:45;;;;;;;4.03;3.20;;;29.90;99.90;;;;;;5032961;28;20029;-49
2022/08/26 03:24:11;;;;;;;5.13;3.17;;;29.90;99.90;;;;;;5032993;28;20163;-49
2022/08/26 03:26:37;;;;;;;3.72;3.28;;;29.90;99.90;;;;;;5032926;28;20057;-49
2022/08/26 03:31:49;;;;;;;3.40;3.05;;;29.80;99.90;;;;;;5033126;28;20056;-49
2022/08/26 03:34:17;;;;;;;3.55;2.80;;;29.90;99.90;;;;;;5032647;28;20367;-49
2022/08/26 03:36:43;;;;;;;4.72;3.60;;;29.80;99.90;;;;;;5032680;28;20494;-49
2022/08/26 03:39:11;;;;;;;3.97;3.25;;;29.80;99.90;;;;;;5032376;28;20099;-49
2022/08/26 03:41:37;;;;;;;4.65;2.88;;;29.90;99.90;;;;;;5032679;28;20028;-49
2022/08/26 03:44:04;;;;;;;3.45;3.13;;;29.80;99.90;;;;;;5032666;28;20092;-49
2022/08/26 03:46:31;;;;;;;;;;;29.80;99.90;;;;;;5033172;28;20021;-49
2022/08/26 03:48:59;;;;;;;3.17;2.88;;;29.80;99.90;;;;;;5032381;28;19909;-49
2022/08/26 03:51:24;;;;;;;3.17;2.83;;;29.80;99.90;;;;;;5032453;28;20124;-50
2022/08/26 03:53:50;;;;;;;3.50;3.17;;;29.80;99.90;;;;;;5032448;28;20108;-49
2022/08/26 03:56:16;;;;;;;4.18;3.47;;;29.80;99.90;;;;;;5032192;28;20022;-50
2022/08/26 03:58:43;;;;;;;3.38;3.08;;;29.80;99.90;;;;;;5032277;28;20068;-49
2022/08/26 04:01:13;;;;;;;3.47;3.08;;;29.80;99.90;;;;;;5044483;23;20058;-50
2022/08/26 04:03:57;;;;;;;4.25;3.15;;;29.80;99.90;;;;;;5032307;28;20037;-50
2022/08/26 04:06:28;;;;;;;2.97;2.67;;;29.80;99.90;;;;;;5032310;28;20365;-51
2022/08/26 04:08:56;;;;;;;3.20;2.75;;;29.80;99.90;;;;;;5032081;28;20028;-50
2022/08/26 04:11:29;;;;;;;3.35;3.03;;;29.80;99.90;;;;;;5032144;28;20026;-50
2022/08/26 04:13:55;;;;;;;4.15;2.80;;;29.80;99.90;;;;;;5031978;28;20418;-50
2022/08/26 04:16:21;;;;;;;3.03;2.80;;;29.70;99.90;;;;;;5031989;28;20025;-51
2022/08/26 04:18:47;;;;;;;3.55;2.75;;;29.70;99.90;;;;;;5031852;28;20049;-51
2022/08/26 04:21:13;;;;;;;3.58;2.80;;;29.70;99.90;;;;;;5031931;28;20108;-51
2022/08/26 04:23:39;;;;;;;3.38;2.60;;;29.70;99.90;;;;;;5031125;28;20448;-51
2022/08/26 04:26:05;;;;;;;3.85;3.35;;;29.70;99.90;;;;;;5032195;28;20060;-51
2022/08/26 04:28:30;;;;;;;3.75;3.33;;;29.70;99.90;;;;;;5031861;28;20091;-51
2022/08/26 04:30:56;;;;;;;4.60;2.95;;;29.70;99.90;;;;;;5031812;28;20385;-51
2022/08/26 04:33:23;;;;;;;4.30;2.80;;;29.70;99.90;;;;;;5031820;28;20084;-50
2022/08/26 04:35:49;;;;;;;3.83;3.03;;;29.80;99.90;;;;;;5031676;28;20029;-50
2022/08/26 04:38:15;;;;;;;4.82;2.72;;;29.70;99.90;;;;;;5031493;28;20374;-51
2022/08/26 04:40:45;;;;;;;3.33;2.78;;;29.70;99.90;;;;;;5031649;28;20018;-51
2022/08/26 04:43:11;;;;;;;4.22;3.53;;;29.70;99.90;;;;;;5013719;28;20528;-50
2022/08/26 04:45:40;;;;;;;3.95;3.00;;;29.70;99.90;;;;;;5031589;28;20029;-53
2022/08/26 04:48:07;;;;;;;3.40;2.78;;;29.70;99.90;;;;;;5031804;28;20025;-51
2022/08/26 04:50:32;;;;;;;2.60;2.20;;;29.70;99.90;;;;;;5030782;28;20037;-50
2022/08/26 04:52:58;;;;;;;3.97;2.88;;;29.70;99.90;;;;;;5031265;28;20377;-50
2022/08/26 04:55:25;;;;;;;3.30;3.00;;;29.70;99.90;;;;;;5031303;28;20120;-50
2022/08/26 04:57:53;;;;;;;3.20;2.90;;;29.70;99.90;;;;;;5031082;28;20017;-51
2022/08/26 05:00:20;;;;;;;2.95;2.65;;;29.70;99.90;;;;;;5031032;28;20128;-50
2022/08/26 05:02:47;;;;;;;2.60;2.40;;;29.70;99.90;;;;;;5031027;28;20030;-51
2022/08/26 05:05:13;;;;;;;2.42;2.15;;;29.70;99.90;;;;;;5031101;28;20500;-51
2022/08/26 05:07:39;;;;;;;2.80;2.55;;;29.70;99.90;;;;;;5031180;28;20025;-51
2022/08/26 05:10:06;;;;;;;3.57;2.60;;;29.70;99.90;;;;;;5031215;28;20032;-52
2022/08/26 05:12:32;;;;;;;2.28;2.03;;;29.70;99.90;;;;;;5031142;28;20064;-51
2022/08/26 05:14:58;;;;;;;3.13;2.72;;;29.70;99.90;;;;;;5031223;28;20057;-52
2022/08/26 05:17:26;;;;;;;2.47;2.27;;;29.70;99.90;;;;;;5031200;28;20033;-52
2022/08/26 05:19:52;;;;;;;;;;;29.70;99.90;;;;;;5031378;28;20041;-51
2022/08/26 05:22:18;;;;;;;2.85;2.17;;;29.70;99.90;;;;;;5030802;28;20043;-51
2022/08/26 05:24:45;;;;;;;2.60;2.38;;;29.70;99.90;;;;;;5030987;28;20037;-51
2022/08/26 05:27:12;;;;;;;6.07;2.60;;;29.60;99.90;;;;;;5030953;28;20033;-51
2022/08/26 05:29:38;;;;;;;2.78;2.25;;;29.70;99.90;;;;;;5031118;28;20028;-51
2022/08/26 05:32:05;;;;;;;2.10;1.90;;;29.70;99.90;;;;;;5031326;28;20037;-51
2022/08/26 05:34:31;;;;;;;2.85;2.45;;;29.60;99.90;;;;;;5031567;28;20156;-51
2022/08/26 05:36:57;;;;;;;3.08;2.50;;;29.60;99.90;;;;;;5035226;28;20029;-51
2022/08/26 05:39:23;;;;;;;2.72;2.45;;;29.60;99.90;;;;;;5035019;28;20195;-51
2022/08/26 05:41:49;;;;;;;2.47;2.28;;;29.60;99.90;;;;;;5034792;28;20060;-52
2022/08/26 05:44:17;;;;;;;2.50;2.25;;;29.60;99.90;;;;;;5034771;28;20498;-51
2022/08/26 05:46:44;;;;;;;2.58;2.28;;;29.60;99.90;;;;;;5034780;28;20493;-52
2022/08/26 05:49:11;;;;;;;4.03;2.95;;;29.60;99.90;;;;;;5034827;28;20478;-52
2022/08/26 05:51:37;;;;;;;3.80;2.45;;;29.60;99.90;;;;;;5017028;28;20034;-52
2022/08/26 05:54:05;;;;;;;3.22;2.60;;;29.60;99.90;;;;;;5034567;28;20175;-51
2022/08/26 05:56:31;;;;;;;3.08;2.20;;;29.60;99.90;;;;;;5034637;28;20485;-52
2022/08/26 05:58:57;;;;;;;2.88;2.58;;;29.60;99.90;;;;;;5016711;28;20037;-52
2022/08/26 06:01:25;;;;;;;2.92;2.63;;;29.60;99.90;;;;;;5034386;28;20073;-52
2022/08/26 06:03:53;;;;;;;2.65;2.08;;;29.60;99.90;;;;;;5016790;28;20091;-52
2022/08/26 06:06:25;;;;;;;3.55;2.30;;;29.60;99.90;;;;;;5034616;28;20053;-52
2022/08/26 06:08:51;;;;;;;3.65;2.70;;;29.60;99.90;;;;;;5034475;28;20021;-51
2022/08/26 06:11:24;;;;;;;2.75;2.45;;;29.60;99.90;;;;;;5034399;28;20025;-51
2022/08/26 06:13:50;;;;;;;2.65;2.42;;;29.60;99.90;;;;;;5034228;28;20018;-51
2022/08/26 06:16:18;;;;;;;2.85;2.08;;;29.60;99.90;;;;;;5034019;28;20033;-51
2022/08/26 06:18:46;;;;;;;3.08;2.22;;;29.50;99.90;;;;;;5034232;28;20044;-51
2022/08/26 06:21:25;;;;;;;2.92;2.63;;;29.60;99.90;;;;;;5034422;28;20410;-51
2022/08/26 06:26:40;;;;;;;4.60;2.75;;;29.60;99.90;;;;;;5034520;28;20083;-51
2022/08/26 06:29:06;;;;;;;3.58;2.88;;;29.60;99.90;;;;;;5033982;28;20052;-51
2022/08/26 06:31:34;;;;;;;2.53;1.95;;;29.60;99.90;;;;;;5034009;28;20068;-51
2022/08/26 06:33:59;;;;;;;;;;;29.60;99.90;;;;;;5034271;28;20099;-51
2022/08/26 06:36:28;;;;;;;4.88;2.33;;;29.60;99.90;;;;;;5033893;28;19913;-51
2022/08/26 06:38:57;;;;;;;3.60;2.17;;;29.60;99.90;;;;;;5033710;28;20156;-51
2022/08/26 06:41:24;;;;;;;2.58;2.13;;;29.60;99.90;;;;;;5034015;28;20037;-51
2022/08/26 06:43:50;;;;;;;2.90;2.00;;;29.60;99.90;;;;;;5033825;28;20053;-51
2022/08/26 06:46:18;;;;;;;2.70;2.40;;;29.70;99.90;;;;;;5032835;28;20068;-51
2022/08/26 06:48:46;;;;;;;3.25;2.17;;;29.70;99.90;;;;;;5033875;28;20029;-51
2022/08/26 06:51:18;;;;;;;4.15;2.45;;;29.70;99.90;;;;;;5033741;28;20087;-51
2022/08/26 06:53:46;;;;;;;2.85;2.40;;;29.70;99.90;;;;;;5033645;28;20021;-51
2022/08/26 06:56:15;;;;;;;2.65;2.08;;;29.70;99.90;;;;;;5033653;28;20028;-51
2022/08/26 06:58:42;;;;;;;2.58;2.25;;;29.70;99.90;;;;;;5033171;28;20512;-51
2022/08/26 07:01:23;;;;;;;3.70;2.10;;;29.70;99.90;;;;;;5033135;28;20045;-51
2022/08/26 07:03:50;;;;;;;3.47;2.25;;;29.70;99.90;;;;;;5033157;28;20038;-52
2022/08/26 07:06:19;;;;;;;;;;;29.70;99.90;;;;;;5033942;28;20022;-52
2022/08/26 07:08:49;;;;;;;3.42;2.67;;;29.70;99.90;;;;;;5033414;28;20376;-51
2022/08/26 07:11:16;;;;;;;4.18;2.45;;;29.80;99.90;;;;;;5033289;28;20489;-51
2022/08/26 07:13:42;;;;;;;2.85;2.25;;;29.80;99.90;;;;;;4999070;28;20021;-51
2022/08/26 07:16:13;;;;;;;3.63;2.80;;;29.80;99.90;;;;;;5032983;28;20033;-51
2022/08/26 07:18:41;;;;;;;2.90;2.45;;;29.80;99.90;;;;;;5032895;28;20037;-51
2022/08/26 07:21:09;;;;;;;3.63;2.75;;;29.80;99.90;;;;;;5032947;28;20064;-52
2022/08/26 07:23:35;;;;;;;3.65;2.08;;;29.80;99.90;;;;;;5032653;28;20120;-52
2022/08/26 07:26:11;;;;;;;2.60;2.30;;;29.80;99.90;;;;;;5015212;28;20069;-52
2022/08/26 07:28:38;;;;;;;2.30;2.10;;;29.80;99.90;;;;;;5032864;28;20570;-51
2022/08/26 07:31:05;;;;;;;3.15;2.25;;;29.80;99.90;;;;;;5032851;28;20071;-51
2022/08/26 07:33:31;;;;;;;2.60;2.40;;;29.80;99.90;;;;;;5032748;28;20044;-52
2022/08/26 07:35:56;;;;;;;3.10;2.40;;;29.90;99.90;;;;;;5032783;28;20030;-52
2022/08/26 07:38:22;;;;;;;4.10;2.08;;;29.90;99.90;;;;;;5032674;28;20236;-51
2022/08/26 07:40:48;;;;;;;3.00;2.70;;;29.90;99.90;;;;;;5033098;28;20034;-52
2022/08/26 07:43:14;;;;;;;3.33;2.40;;;29.90;99.90;;;;;;5032941;28;20021;-51
2022/08/26 07:45:41;;;;;;;2.80;2.30;;;29.90;99.90;;;;;;5014958;28;20116;-52
2022/08/26 07:48:07;;;;;;;3.80;2.30;;;29.90;99.90;;;;;;5032514;28;20026;-52
2022/08/26 07:50:33;;;;;;;5.18;2.35;;;29.90;99.90;;;;;;5032288;28;20148;-52
2022/08/26 07:53:01;;;;;;;3.17;2.28;;;29.90;99.90;;;;;;5032329;28;20022;-51
2022/08/26 07:55:27;;;;;;;3.47;2.08;;;29.90;99.90;;;;;;5032308;28;20034;-52
2022/08/26 07:57:53;;;;;;;4.88;2.55;;;29.90;99.90;;;;;;5031341;28;20021;-51
2022/08/26 08:00:20;;;;;;;4.65;2.00;;;29.90;99.90;;;;;;5031885;28;20579;-51
2022/08/26 08:02:46;;;;;;;3.13;2.10;;;29.90;99.90;;;;;;5032467;28;20136;-52
2022/08/26 08:05:15;;;;;;;2.67;2.45;;;29.90;99.90;;;;;;5032174;28;20048;-52
2022/08/26 08:07:43;;;;;;;5.13;2.38;;;29.90;99.90;;;;;;5032194;28;20425;-51
2022/08/26 08:10:12;;;;;;;4.50;2.53;;;30.00;99.90;;;;;;5032072;28;20021;-52
2022/08/26 08:12:39;;;;;;;2.65;1.92;;;30.00;99.90;;;;;;5031784;28;20027;-52
2022/08/26 08:15:06;;;;;;;3.70;2.42;;;30.00;99.90;;;;;;5032161;28;20028;-52
2022/08/26 08:17:33;;;;;;;4.45;2.70;;;30.00;99.90;;;;;;5014465;28;20017;-52
2022/08/26 08:20:00;;;;;;;3.70;2.50;;;30.00;99.90;;;;;;5031893;28;20059;-51
2022/08/26 08:22:26;;;;;;;2.92;2.33;;;30.00;99.90;;;;;;5031626;28;20080;-51
2022/08/26 08:24:52;;;;;;;4.32;2.78;;;30.00;99.90;;;;;;5031680;28;20025;-51
2022/08/26 08:27:19;;;;;;;4.20;2.22;;;30.00;99.90;;;;;;5031967;28;20091;-51
2022/08/26 08:29:46;;;;;;;3.17;2.67;;;30.00;99.90;;;;;;5031792;28;20280;-51
2022/08/26 08:32:12;;;;;;;3.83;2.95;;;30.00;99.90;;;;;;5031626;28;20018;-51
2022/08/26 08:34:38;;;;;;;2.45;2.22;;;30.00;99.90;;;;;;5031513;28;20061;-51
2022/08/26 08:37:05;;;;;;;3.13;2.83;;;30.00;99.90;;;;;;5031388;28;20055;-52
2022/08/26 08:39:31;;;;;;;3.70;2.75;;;30.00;99.90;;;;;;5031523;28;20371;-51
2022/08/26 08:42:21;;;;;;;2.95;2.65;;;30.00;99.90;;;;;;5031263;28;20026;-52
2022/08/26 08:44:49;;;;;;;2.92;2.40;;;30.10;99.90;;;;;;5031419;28;20029;-52
2022/08/26 08:47:22;;;;;;;4.38;2.72;;;30.10;99.90;;;;;;5031428;28;20029;-51
2022/08/26 08:49:48;;;;;;;3.50;2.90;;;30.10;99.90;;;;;;5031458;28;20117;-51
2022/08/26 08:52:25;;;;;;;2.90;2.60;;;30.10;99.90;;;;;;5031201;28;20398;-52
2022/08/26 08:54:52;;;;;;;3.45;2.83;;;30.10;99.90;;;;;;5031410;28;20101;-52
2022/08/26 08:57:34;;;;;;;3.00;2.80;;;30.10;99.90;;;;;;5030996;28;20061;-52
2022/08/26 09:00:12;;;;;;;4.50;2.83;;;30.10;99.90;;;;;;5031005;28;20145;-51
2022/08/26 09:02:52;;;;;;;3.85;3.17;;;30.10;99.90;;;;;;5031013;28;20036;-51
2022/08/26 09:05:40;;;;;;;4.18;2.53;;;30.10;99.90;;;;;;5031163;28;20021;-52
2022/08/26 09:08:14;;;;;;;3.30;2.70;;;30.10;99.90;;;;;;5031109;28;20492;-52
2022/08/26 09:10:51;;;;;;;3.58;2.67;;;30.10;99.90;;;;;;5030742;28;20116;-51
2022/08/26 09:13:19;;;;;;;3.50;2.80;;;30.20;99.90;;;;;;5030848;28;20024;-51
2022/08/26 09:16:14;;;;;;;4.32;2.80;;;30.20;99.90;;;;;;5030947;28;20427;-52
2022/08/26 09:18:49;;;;;;;4.00;3.25;;;30.20;99.90;;;;;;5017636;28;20040;-52
2022/08/26 09:21:18;;;;;;;3.38;2.88;;;30.20;99.90;;;;;;5030701;28;20079;-52
2022/08/26 09:23:45;;;;;;;3.78;3.10;;;30.20;99.90;;;;;;5030711;28;20470;-52
2022/08/26 09:26:19;;;;;;;3.30;2.70;;;30.20;99.90;;;;;;5030973;28;20057;-52
2022/08/26 09:28:56;;;;;;;4.05;2.70;;;30.20;99.90;;;;;;5030853;28;20022;-52
2022/08/26 09:31:26;;;;;;;3.80;2.80;;;30.30;99.90;;;;;;5030766;28;20069;-52
2022/08/26 09:34:21;;;;;;;3.65;2.83;;;30.30;99.90;;;;;;5030694;28;20036;-52
2022/08/26 09:36:56;;;;;;;3.85;2.90;;;30.30;99.90;;;;;;5030534;28;20033;-52
2022/08/26 09:39:37;;;;;;;3.30;2.78;;;30.30;99.90;;;;;;5030764;28;20116;-53
2022/08/26 09:42:03;;;;;;;3.30;2.60;;;30.30;99.90;;;;;;5030462;28;20048;-49
2022/08/26 09:44:30;;;;;;;2.85;2.60;;;30.30;99.90;;;;;;5030714;28;20018;-52
2022/08/26 09:47:02;;;;;;;4.03;2.85;;;30.30;99.90;;;;;;5030729;28;20021;-52
2022/08/26 09:49:39;;;;;;;3.30;2.80;;;30.30;99.90;;;;;;5012651;28;20026;-52
2022/08/26 09:52:08;;;;;;;3.22;2.92;;;30.30;99.90;;;;;;5030437;28;20025;-53
2022/08/26 09:54:36;;;;;;;4.85;2.95;;;30.30;99.90;;;;;;5030478;28;20425;-52
2022/08/26 09:57:49;;;;;;;3.88;3.30;;;30.30;99.90;;;;;;5030390;28;20020;-52
2022/08/26 10:00:33;;;;;;;3.90;3.28;;;30.40;99.90;;;;;;4969002;28;20054;-52
2022/08/26 10:03:10;;;;;;;5.15;3.22;;;30.40;99.90;;;;;;4953016;28;20030;-52
2022/08/26 10:05:39;;;;;;;4.03;3.20;;;30.40;99.90;;;;;;5013277;28;20041;-53
2022/08/26 10:08:33;;;;;;;4.65;3.63;;;30.40;99.90;;;;;;5030214;28;20105;-53
2022/08/26 10:11:10;;;;;;;4.93;4.00;;;30.40;99.90;;;;;;5030241;28;20032;-52
2022/08/26 10:13:42;;;;;;;;;;;30.40;99.90;;;;;;5030546;28;20384;-52
2022/08/26 10:16:21;;;;;;;4.15;3.67;;;30.50;99.90;;;;;;5030307;28;19905;-52
2022/08/26 10:18:55;;;;;;;4.43;3.80;;;30.50;99.90;;;;;;5030061;28;20045;-53
2022/08/26 10:21:31;;;;;;;4.20;3.80;;;30.50;99.90;;;;;;5030692;28;20040;-52
2022/08/26 10:23:59;;;;;;;4.47;4.07;;;30.50;99.90;;;;;;5034257;28;20021;-52
2022/08/26 10:26:44;;;;;;;5.40;4.05;;;30.50;99.90;;;;;;5034237;28;20101;-53
2022/08/26 10:29:26;;;;;;;6.03;4.32;;;30.60;99.90;;;;;;5033799;28;20031;-52
2022/08/26 10:32:03;;;;;;;5.63;3.70;;;30.50;99.90;;;;;;5033780;28;20026;-52
2022/08/26 10:34:31;;;;;;;4.88;4.15;;;30.60;99.90;;;;;;5033814;28;20481;-52
2022/08/26 10:37:12;;;;;;;5.63;3.97;;;30.60;99.90;;;;;;5033959;28;20401;-52
2022/08/26 10:39:47;;;;;;;4.55;4.15;;;30.60;99.90;;;;;;5033393;28;20033;-52
2022/08/26 10:42:37;;;;;;;5.60;4.10;;;30.60;99.90;;;;;;5033612;28;20498;-52
2022/08/26 10:45:20;;;;;;;6.28;4.22;;;30.60;99.90;;;;;;5033472;28;20017;-52
2022/08/26 10:48:00;;;;;;;5.53;4.28;;;30.70;99.90;;;;;;5033381;28;20031;-52
2022/08/26 10:50:33;;;;;;;5.28;4.35;;;30.70;99.90;;;;;;5033411;28;20029;-52
2022/08/26 10:53:21;;;;;;;6.13;4.78;;;30.70;99.90;;;;;;5034123;28;20061;-52
2022/08/26 10:55:47;;;;;;;4.82;4.25;;;30.70;99.90;;;;;;5033169;28;20486;-52
2022/08/26 10:58:25;;;;;;;5.50;4.55;;;30.80;99.90;;;;;;5033154;28;20104;-53
2022/08/26 11:04:34;;;;;;;6.32;4.85;;;30.70;99.90;;;;;;4999773;28;20429;-52
2022/08/26 11:07:33;;;;;;;5.25;4.10;;;30.80;99.90;;;;;;5033395;28;20377;-52
2022/08/26 11:10:19;;;;;;;5.10;4.55;;;30.80;99.90;;;;;;5033302;28;20061;-52
2022/08/26 11:13:02;;;;;;;5.90;4.28;;;30.80;99.90;;;;;;5002362;28;20042;-52
2022/08/26 11:15:28;;;;;;;4.47;3.70;;;30.80;99.90;;;;;;5033310;28;20520;-52
2022/08/26 11:17:57;;;;;;;5.57;4.85;;;30.90;99.90;;;;;;5033119;28;20060;-52
2022/08/26 11:20:32;;;;;;;4.50;4.10;;;30.90;99.90;;;;;;5032971;28;20045;-52
2022/08/26 11:23:21;;;;;;;4.43;4.03;;;30.90;99.90;;;;;;5032843;28;20048;-52
2022/08/26 11:26:06;;;;;;;6.60;4.70;;;30.90;99.90;;;;;;5033043;28;20035;-52
2022/08/26 11:28:34;;;;;;;4.97;4.35;;;30.90;99.90;;;;;;5033012;28;20034;-52
2022/08/26 11:31:00;;;;;;;6.72;4.57;;;30.90;99.90;;;;;;5033087;28;20017;-52
2022/08/26 11:33:47;;;;;;;5.25;4.75;;;31.00;99.90;;;;;;5014792;28;20047;-52
2022/08/26 11:36:40;;;;;;;5.05;4.00;;;31.00;99.90;;;;;;5032760;28;20036;-52
2022/08/26 11:39:28;;;;;;;4.70;4.18;;;31.00;99.90;;;;;;5032725;28;20512;-52
2022/08/26 11:41:58;;;;;;;5.38;4.88;;;31.00;99.90;;;;;;5032637;28;20057;-52
2022/08/26 11:44:37;;;;;;;6.82;5.38;;;31.00;99.90;;;;;;5032211;28;20598;-52
2022/08/26 11:47:03;;;;;;;7.75;5.10;;;31.10;99.90;;;;;;5032505;28;20029;-52
2022/08/26 11:49:31;;;;;;;6.55;5.00;;;31.00;99.90;;;;;;5032428;28;20074;-53
2022/08/26 11:52:18;;;;;;;5.40;4.90;;;31.10;99.90;;;;;;5032142;28;20032;-53
2022/08/26 11:54:59;;;;;;;9.35;4.95;;;31.10;99.90;;;;;;5032249;28;20018;-52
2022/08/26 11:57:26;;;;;;;5.60;5.10;;;31.10;99.90;;;;;;5032032;28;20485;-52
2022/08/26 11:59:52;;;;;;;6.65;5.35;;;31.10;99.90;;;;;;5031812;28;20457;-52
2022/08/26 12:02:19;;;;;;;6.15;5.55;;;31.10;99.90;;;;;;5032119;28;20037;-52
2022/08/26 12:04:49;;;;;;;5.32;4.82;;;31.10;99.90;;;;;;5032342;28;20032;-52
2022/08/26 12:07:16;;;;;;;5.78;5.20;;;31.20;99.90;;;;;;5032048;28;20029;-52
2022/08/26 12:09:57;;;;;;;5.95;5.35;;;31.20;99.90;;;;;;5032056;28;20028;-52
2022/08/26 12:12:36;;;;;;;6.65;5.60;;;31.20;99.90;;;;;;5032055;28;20034;-52
2022/08/26 12:15:17;;;;;;;5.40;4.90;;;31.20;99.90;;;;;;5032120;28;20121;-52
2022/08/26 12:17:45;;;;;;;6.60;5.43;;;31.20;99.90;;;;;;5031997;28;20485;-52
2022/08/26 12:20:45;;;;;;;6.68;5.97;;;31.20;99.90;;;;;;5031868;28;20034;-52
2022/08/26 12:23:38;;;;;;;6.47;5.55;;;31.30;99.90;;;;;;5031818;28;20102;-52
2022/08/26 12:26:09;;;;;;;6.60;5.65;;;31.30;99.90;;;;;;5032136;28;20112;-52
2022/08/26 12:29:06;;;;;;;6.07;5.45;;;31.30;99.90;;;;;;5031948;28;20033;-52
2022/08/26 12:31:43;;;;;;;8.40;5.78;;;31.30;99.90;;;;;;5031149;28;20029;-52
2022/08/26 12:34:15;;;;;;;6.90;5.63;;;31.30;99.90;;;;;;5031550;28;20029;-53
2022/08/26 12:36:55;;;;;;;6.35;5.68;;;31.30;99.90;;;;;;5031558;28;20027;-52
2022/08/26 12:39:26;;;;;;;6.20;5.60;;;31.30;99.90;;;;;;5031249;28;20489;-52
2022/08/26 12:41:55;;;;;;;6.10;5.28;;;31.40;99.90;;;;;;5013713;28;20553;-52
2022/08/26 12:44:40;;;;;;;6.28;5.68;;;31.30;99.90;;;;;;5030945;28;20138;-53
2022/08/26 12:47:11;;;;;;;5.88;5.18;;;31.40;99.90;;;;;;5031535;28;20526;-53
2022/08/26 12:49:38;;;;;;;8.50;5.88;;;31.40;99.90;;;;;;5031577;28;20013;-52
2022/08/26 12:52:05;;;;;;;;;;;31.40;99.90;;;;;;5032022;28;20075;-52
2022/08/26 12:57:16;;;;;;;6.78;5.50;;;31.40;99.90;;;;;;5031405;28;20045;-52
2022/08/26 12:59:41;;;;;;;6.20;5.55;;;31.50;99.90;;;;;;5030822;28;20037;-52
2022/08/26 13:02:07;;;;;;;5.90;5.30;;;31.50;99.90;;;;;;5031155;28;20029;-53
2022/08/26 13:04:40;;;;;;;5.95;5.35;;;31.50;99.90;;;;;;5030943;28;20037;-52
2022/08/26 13:07:22;;;;;;;5.60;5.10;;;31.50;99.90;;;;;;5031156;28;20351;-52
2022/08/26 13:09:52;;;;;;;5.93;5.38;;;31.50;99.90;;;;;;5030913;28;20029;-52
2022/08/26 13:12:30;;;;;;;7.00;6.22;;;31.60;99.90;;;;;;5030747;28;20017;-53
2022/08/26 13:14:57;;;;;;;6.00;5.40;;;31.50;99.90;;;;;;5030749;28;20030;-52
2022/08/26 13:17:24;;;;;;;6.30;5.22;;;31.50;99.90;;;;;;5030719;28;20025;-52
2022/08/26 13:19:50;;;;;;;6.18;5.57;;;31.60;99.90;;;;;;5030745;28;20047;-52